createdAt,value
2023-04-09T05:04:47.537Z,98780.75
2023-04-09T05:09:52.255Z,98785.44
2023-04-09T05:15:00.570Z,98782.84
2023-04-09T05:20:02.105Z,98788.03
2023-04-09T05:25:11.704Z,98782.66
2023-04-09T05:30:16.358Z,98787.13
2023-04-09T05:35:17.954Z,98791.72
2023-04-09T05:40:20.168Z,98800.84
2023-04-09T05:45:21.719Z,98800.13
2023-04-09T05:50:27.039Z,98796.03
2023-04-09T05:55:32.382Z,98798.09
2023-04-09T06:00:35.698Z,98809.63
2023-04-09T06:05:37.649Z,98818.03
2023-04-09T06:10:41.044Z,98811.63
2023-04-09T06:15:43.101Z,98810.06
2023-04-09T06:20:44.722Z,98819.56
2023-04-09T06:25:46.178Z,98808.22
2023-04-09T06:30:48.964Z,98813.19
2023-04-09T06:35:50.577Z,98811.97
2023-04-09T06:40:52.272Z,98812.28
2023-04-09T06:45:53.711Z,98814.09
2023-04-09T06:50:55.201Z,98813.78
2023-04-09T06:55:57.219Z,98822.56
2023-04-09T07:00:59.442Z,98819.66
2023-04-09T07:06:01.064Z,98826.66
2023-04-09T07:11:03.330Z,98833.84
2023-04-09T07:16:05.202Z,98824.16
2023-04-09T07:21:06.900Z,98819.75
2023-04-09T07:26:08.532Z,98823.31
2023-04-09T07:31:10.738Z,98821.31
2023-04-09T07:36:12.493Z,98828.91
2023-04-09T07:41:14.125Z,98827.88
2023-04-09T07:46:20.630Z,98816.22
2023-04-09T07:51:22.118Z,98829.13
2023-04-09T07:56:23.578Z,98833.38
2023-04-09T08:01:26.058Z,98834.25
2023-04-09T08:06:27.516Z,98827.28
2023-04-09T08:11:28.981Z,98829.00
2023-04-09T08:16:30.560Z,98833.38
2023-04-09T08:21:32.257Z,98839.38
2023-04-09T08:26:33.764Z,98831.03
2023-04-09T08:31:37.246Z,98829.19
2023-04-09T08:36:38.772Z,98829.78
2023-04-09T08:41:45.694Z,98825.31
2023-04-09T08:46:47.120Z,98827.13
2023-04-09T08:51:49.184Z,98835.25
2023-04-09T08:56:50.649Z,98842.81
2023-04-09T09:02:08.216Z,98838.72
2023-04-09T09:07:09.974Z,98835.59
2023-04-09T09:12:13.205Z,98835.84
2023-04-09T09:17:15.274Z,98830.28
2023-04-09T09:22:17.439Z,98837.75
2023-04-09T09:27:40.346Z,98837.63
2023-04-09T09:32:42.537Z,98843.19
2023-04-09T09:37:44.114Z,98839.38
2023-04-09T09:42:56.911Z,98834.41
2023-04-09T09:47:58.451Z,98833.28
2023-04-09T09:53:07.514Z,98818.06
2023-04-09T09:58:16.689Z,98819.16
2023-04-09T10:03:24.907Z,98823.97
2023-04-09T10:08:28.158Z,98821.72
2023-04-09T10:13:35.216Z,98813.94
2023-04-09T10:18:36.877Z,98811.47
2023-04-09T10:23:42.434Z,98806.53
2023-04-09T10:28:43.844Z,98804.53
2023-04-09T10:33:45.896Z,98806.16
2023-04-09T10:38:48.160Z,98803.94
2023-04-09T10:43:50.822Z,98799.50
2023-04-09T10:49:11.533Z,98793.19
2023-04-09T10:54:35.899Z,98797.88
2023-04-09T10:59:37.280Z,98782.00
2023-04-09T11:05:04.474Z,98782.78
2023-04-09T11:10:06.757Z,98777.88
2023-04-09T11:15:16.530Z,98779.53
2023-04-09T11:20:21.422Z,98782.69
2023-04-09T11:25:27.132Z,98781.44
2023-04-09T11:30:28.981Z,98789.25
2023-04-09T11:35:30.758Z,98790.72
2023-04-09T11:40:32.340Z,98791.81
2023-04-09T11:45:33.847Z,98794.00
2023-04-09T11:50:36.450Z,98786.69
2023-04-09T11:55:38.128Z,98787.19
2023-04-09T12:00:41.328Z,98780.50
2023-04-09T12:05:50.462Z,98784.13
2023-04-09T12:10:53.843Z,98778.38
2023-04-09T12:15:57.472Z,98780.81
2023-04-09T12:21:01.302Z,98785.88
2023-04-09T12:26:02.798Z,98776.72
2023-04-09T12:31:04.387Z,98781.81
2023-04-09T12:36:06.321Z,98786.91
2023-04-09T12:41:08.039Z,98785.06
2023-04-09T12:46:09.975Z,98771.06
2023-04-09T12:51:14.403Z,98772.94
2023-04-09T12:56:16.007Z,98774.41
2023-04-09T13:01:18.072Z,98763.28
2023-04-09T13:06:19.577Z,98768.56
2023-04-09T13:11:21.191Z,98774.31
2023-04-09T13:16:22.796Z,98769.00
2023-04-09T13:21:24.417Z,98757.47
2023-04-09T13:26:25.997Z,98759.97
2023-04-09T13:31:27.685Z,98747.38
2023-04-09T13:36:30.173Z,98743.00
2023-04-09T13:41:32.330Z,98741.00
2023-04-09T13:46:33.844Z,98746.34
2023-04-09T13:51:35.456Z,98742.03
2023-04-09T13:56:37.823Z,98730.97
2023-04-09T14:01:39.421Z,98726.38
2023-04-09T14:06:42.356Z,98730.31
2023-04-09T14:11:43.798Z,98727.19
2023-04-09T14:16:46.838Z,98731.75
2023-04-09T14:21:48.375Z,98723.91
2023-04-09T14:26:53.004Z,98724.94
2023-04-09T14:31:56.714Z,98721.06
2023-04-09T14:36:58.721Z,98715.72
2023-04-09T14:42:00.929Z,98716.16
2023-04-09T14:47:02.608Z,98710.50
2023-04-09T14:52:04.380Z,98709.59
2023-04-09T14:57:06.803Z,98709.38
2023-04-09T15:02:08.280Z,98701.44
2023-04-09T15:07:09.779Z,98700.84
2023-04-09T15:12:11.263Z,98694.19
2023-04-09T15:17:12.741Z,98697.50
2023-04-09T15:22:14.246Z,98690.75
2023-04-09T15:27:15.857Z,98701.06
2023-04-09T15:32:17.476Z,98697.72
2023-04-09T15:37:18.895Z,98692.53
2023-04-09T15:42:22.640Z,98693.16
2023-04-09T15:47:24.472Z,98688.94
2023-04-09T15:52:26.652Z,98690.25
2023-04-09T15:57:28.742Z,98697.06
2023-04-09T16:02:30.329Z,98701.56
2023-04-09T16:07:31.867Z,98693.63
2023-04-09T16:12:33.290Z,98695.91
2023-04-09T16:17:40.532Z,98696.41
2023-04-09T16:22:42.857Z,98696.91
2023-04-09T16:27:44.305Z,98698.81
2023-04-09T16:32:45.794Z,98697.47
2023-04-09T16:37:47.380Z,98700.69
2023-04-09T16:42:48.816Z,98705.53
2023-04-09T16:47:53.991Z,98696.59
2023-04-09T16:52:55.583Z,98708.28
2023-04-09T16:57:57.220Z,98700.50
2023-04-09T17:02:58.861Z,98708.28
2023-04-09T17:08:02.024Z,98707.38
2023-04-09T17:13:03.643Z,98705.41
2023-04-09T17:18:05.238Z,98712.66
2023-04-09T17:23:07.201Z,98711.22
2023-04-09T17:28:09.098Z,98713.44
2023-04-09T17:33:12.104Z,98707.47
2023-04-09T17:38:20.285Z,98714.00
2023-04-09T17:43:21.801Z,98716.47
2023-04-09T17:48:23.283Z,98718.78
2023-04-09T17:53:24.751Z,98718.94
2023-04-09T17:58:26.913Z,98720.88
2023-04-09T18:03:28.506Z,98719.97
2023-04-09T18:08:30.244Z,98731.44
2023-04-09T18:13:31.646Z,98732.19
2023-04-09T18:18:33.062Z,98728.31
2023-04-09T18:23:34.712Z,98725.06
2023-04-09T18:28:36.533Z,98745.81
2023-04-09T18:33:37.956Z,98737.78
2023-04-09T18:38:39.510Z,98745.72
2023-04-09T18:43:41.190Z,98738.63
2023-04-09T18:48:43.337Z,98742.72
2023-04-09T18:53:45.052Z,98750.50
2023-04-09T18:58:51.785Z,98747.47
2023-04-09T19:03:53.805Z,98755.41
2023-04-09T19:08:58.101Z,98754.34
2023-04-09T19:13:59.606Z,98748.41
2023-04-09T19:19:01.107Z,98760.41
2023-04-09T19:24:04.908Z,98748.59
2023-04-09T19:29:07.723Z,98750.66
2023-04-09T19:34:10.907Z,98751.78
2023-04-09T19:39:12.382Z,98756.84
2023-04-09T19:44:16.793Z,98755.22
2023-04-09T19:49:18.226Z,98755.56
2023-04-09T19:54:19.750Z,98756.19
2023-04-09T19:59:21.330Z,98751.50
2023-04-09T20:04:25.766Z,98748.75
2023-04-09T20:09:28.972Z,98762.91
2023-04-09T20:14:31.336Z,98754.94
2023-04-09T20:19:32.892Z,98755.22
2023-04-09T20:24:35.234Z,98754.66
2023-04-09T20:29:37.100Z,98756.31
2023-04-09T20:34:38.736Z,98753.69
2023-04-09T20:39:40.693Z,98751.03
2023-04-09T20:44:43.141Z,98745.44
2023-04-09T20:49:46.353Z,98752.16
2023-04-09T20:54:47.876Z,98741.25
2023-04-09T20:59:53.569Z,98747.97
2023-04-09T21:04:56.342Z,98745.75
2023-04-09T21:09:57.935Z,98740.72
2023-04-09T21:15:01.357Z,98739.88
2023-04-09T21:20:02.887Z,98748.81
2023-04-09T21:25:04.814Z,98758.59
2023-04-09T21:30:06.976Z,98760.84
2023-04-09T21:35:08.440Z,98770.91
2023-04-09T21:40:10.212Z,98757.75
2023-04-09T21:45:11.793Z,98753.59
2023-04-09T21:50:13.655Z,98760.00
2023-04-09T21:55:15.293Z,98757.75
